VLI weather

Bauerfield International Airport
Port Vila, Shefa, Vanuatu

Public forecast

Using degrees Celsius for public forecast. Weather courtesy of forecast.io.

METAR (pilot weather report)

Retrieved 2019/03/26 22:00 UTC (52 seconds ago):

NVVV 262200Z 12012KT 9999 SCT020 29/24 Q1010

TAF (pilot weather forecast)

Forecast is more than 12 hours old.

Retrieved 2019/03/22 18:03 UTC (4 days ago):

TAF TAF NVVV 221600Z 2218/2318 07005KT 9999 SCT020 BKN040 INTER 2218/2224 9000 -SHRA BKN018